Time;durP1;ratioP1;P1;durP2;ratioP2;P2;SDS_P1;SDS_P2;PMS_P1;PMS_P2;Temp;Humidity;BMP_temperature;BMP_pressure;BME280_temperature;BME280_humidity;BME280_pressure;Samples;Min_cycle;Max_cycle;Signal;HPM_P1;HPM_P2
2022/11/17 00:00:21;;;;;;;5.35;4.58;;;;;;;4.97;82.22;99015.69;1676465;85;21100;-77
2022/11/17 00:02:47;;;;;;;4.58;3.98;;;;;;;4.95;82.28;99020.21;1680444;83;20984;-77
2022/11/17 00:05:14;;;;;;;5.20;4.70;;;;;;;4.92;82.30;99019.59;1677549;83;22440;-77
2022/11/17 00:07:44;;;;;;;5.35;4.50;;;;;;;4.91;82.38;99008.30;1665252;85;21688;-74
2022/11/17 00:10:12;;;;;;;5.20;4.60;;;;;;;4.93;82.45;99006.42;1667888;85;21075;-75
2022/11/17 00:15:25;;;;;;;6.55;4.95;;;;;;;4.91;82.37;98988.68;1665817;83;21541;-76
2022/11/17 00:23:24;;;;;;;5.42;4.87;;;;;;;4.79;82.39;98990.47;1671839;83;21067;-75
2022/11/17 00:25:51;;;;;;;4.92;4.42;;;;;;;4.76;82.40;98987.27;1683720;83;21092;-75
2022/11/17 00:28:17;;;;;;;5.50;4.37;;;;;;;4.74;82.46;98982.16;1678159;85;21079;-75
2022/11/17 00:36:15;;;;;;;4.83;4.28;;;;;;;4.79;82.43;98990.95;1676629;83;21060;-77
2022/11/17 00:38:42;;;;;;;4.67;4.20;;;;;;;4.75;82.38;98993.45;1678758;83;21013;-77
2022/11/17 00:41:08;;;;;;;5.08;4.00;;;;;;;4.69;82.37;98988.69;1679205;83;21506;-77
2022/11/17 00:43:35;;;;;;;3.90;3.50;;;;;;;4.65;82.41;98988.58;1669556;83;21574;-76
2022/11/17 00:46:02;;;;;;;3.60;3.30;;;;;;;4.60;82.40;98989.75;1676837;84;21040;-76
2022/11/17 00:48:29;;;;;;;4.35;3.20;;;;;;;4.58;82.45;98990.34;1672275;83;21251;-76
2022/11/17 00:50:56;;;;;;;3.12;2.80;;;;;;;4.54;82.39;98990.72;1671217;83;21104;-75
2022/11/17 00:53:22;;;;;;;3.72;3.27;;;;;;;4.49;82.39;98986.30;1656869;84;21079;-73
2022/11/17 00:55:48;;;;;;;3.70;3.35;;;;;;;4.51;82.40;98981.30;1650336;85;21842;-75
2022/11/17 00:58:15;;;;;;;3.20;2.90;;;;;;;4.53;82.41;98982.02;1650822;85;21012;-75
2022/11/17 01:00:42;;;;;;;3.62;3.05;;;;;;;4.52;82.32;98975.59;1665304;84;20997;-75
2022/11/17 01:03:08;;;;;;;2.80;2.50;;;;;;;4.47;82.23;98972.05;1656808;86;21488;-74
2022/11/17 01:05:35;;;;;;;3.05;2.70;;;;;;;4.41;82.14;98967.27;1659197;86;21055;-74
2022/11/17 01:08:02;;;;;;;2.47;2.25;;;;;;;4.35;82.07;98975.60;1660976;84;21932;-75
2022/11/17 01:10:29;;;;;;;3.02;2.55;;;;;;;4.31;82.11;98968.45;1633808;86;21088;-73
2022/11/17 01:12:57;;;;;;;2.70;2.30;;;;;;;4.29;82.11;98976.89;1662265;84;21020;-75
2022/11/17 01:15:23;;;;;;;2.90;2.60;;;;;;;4.28;82.15;98973.09;1666231;84;21079;-75
2022/11/17 01:17:52;;;;;;;2.75;2.40;;;;;;;4.27;82.14;98983.19;1628352;87;21097;-75
2022/11/17 01:20:18;;;;;;;3.30;2.70;;;;;;;4.25;82.17;98987.23;1654479;85;21991;-74
2022/11/17 01:22:46;;;;;;;2.90;2.58;;;;;;;4.26;82.19;98985.45;1664234;84;21112;-74
2022/11/17 01:25:13;;;;;;;3.85;2.60;;;;;;;4.23;82.16;98984.34;1661369;85;21017;-74
2022/11/17 01:27:40;;;;;;;2.80;2.50;;;;;;;4.22;82.20;98987.91;1671116;84;21029;-74
2022/11/17 01:30:09;;;;;;;3.35;2.45;;;;;;;4.24;82.24;98998.60;1638459;87;21041;-74
2022/11/17 01:32:37;;;;;;;3.55;2.52;;;;;;;4.25;82.17;98998.98;1632775;86;21051;-75
2022/11/17 01:35:06;;;;;;;2.50;2.30;;;;;;;4.21;82.09;99002.77;1647332;85;21512;-74
2022/11/17 01:37:32;;;;;;;3.60;2.50;;;;;;;4.16;81.85;99010.13;1671153;84;21519;-74
2022/11/17 01:39:59;;;;;;;3.05;2.45;;;;;;;4.12;81.90;99005.23;1671513;85;21013;-74
2022/11/17 01:42:26;;;;;;;2.52;2.30;;;;;;;4.14;81.94;98999.41;1624963;87;21097;-74
2022/11/17 01:44:57;;;;;;;2.25;2.05;;;;;;;4.09;81.72;98999.77;1637716;86;21913;-74
2022/11/17 01:47:54;;;;;;;2.35;1.90;;;;;;;4.03;81.72;99004.97;1609968;87;21073;-74
2022/11/17 01:50:44;;;;;;;2.52;1.87;;;;;;;4.05;81.75;99010.07;1665812;84;21088;-74
2022/11/17 01:53:14;;;;;;;2.35;2.02;;;;;;;4.07;81.76;99007.38;1670081;85;21057;-74
2022/11/17 01:55:45;;;;;;;2.45;2.00;;;;;;;4.03;81.74;99003.66;1669759;85;21111;-75
2022/11/17 01:58:26;;;;;;;2.20;2.00;;;;;;;4.07;81.77;99007.38;1672392;84;22628;-72
2022/11/17 02:00:53;;;;;;;2.10;1.80;;;;;;;4.04;81.72;99004.48;1660663;84;21017;-73
2022/11/17 02:03:21;;;;;;;1.82;1.72;;;;;;;4.02;81.61;99001.16;1676318;83;21557;-73
2022/11/17 02:06:04;;;;;;;3.10;1.72;;;;;;;3.97;81.53;99006.75;1665473;85;21110;-73
2022/11/17 02:08:31;;;;;;;2.98;1.82;;;;;;;3.98;81.59;99012.80;1651382;84;21111;-72
2022/11/17 02:11:00;;;;;;;1.98;1.80;;;;;;;3.97;81.53;99010.66;1653280;84;22543;-72
2022/11/17 02:13:26;;;;;;;2.40;2.00;;;;;;;3.95;81.50;99011.70;1666024;84;21028;-73
2022/11/17 02:15:53;;;;;;;2.52;1.80;;;;;;;3.91;81.37;99008.97;1656132;85;21534;-72
2022/11/17 02:18:20;;;;;;;3.80;2.02;;;;;;;3.85;81.29;99002.41;1659267;84;21068;-72
2022/11/17 02:21:06;;;;;;;2.77;2.00;;;;;;;3.82;81.29;99006.55;1670641;84;21040;-72
2022/11/17 02:24:07;;;;;;;2.20;2.00;;;;;;;3.81;81.32;98999.67;1662893;85;22618;-73
2022/11/17 02:27:30;;;;;;;3.12;2.40;;;;;;;3.79;81.27;99008.09;1658278;84;21061;-73
2022/11/17 02:30:03;;;;;;;3.72;2.15;;;;;;;3.75;81.22;99007.94;1669037;85;21025;-72
2022/11/17 02:32:53;;;;;;;2.85;2.55;;;;;;;3.69;81.20;99010.55;1666163;84;21483;-72
2022/11/17 02:35:43;;;;;;;3.45;2.37;;;;;;;3.66;81.18;99008.61;1663565;84;21079;-72
2022/11/17 02:38:33;;;;;;;2.67;2.40;;;;;;;3.59;81.17;99007.41;1687972;83;21962;-72
2022/11/17 02:41:23;;;;;;;2.85;2.55;;;;;;;3.60;81.24;99010.38;1665598;84;21116;-72
2022/11/17 02:44:17;;;;;;;3.10;2.70;;;;;;;3.59;81.18;99013.94;1665773;85;21571;-72
2022/11/17 02:46:51;;;;;;;3.60;2.83;;;;;;;3.55;81.08;98999.42;1669254;85;21057;-72
2022/11/17 02:49:36;;;;;;;3.12;2.62;;;;;;;3.52;81.07;98997.88;1656388;84;21083;-72
2022/11/17 02:52:02;;;;;;;3.62;2.58;;;;;;;3.48;80.95;99004.75;1663147;85;21838;-73
2022/11/17 02:54:30;;;;;;;3.67;2.72;;;;;;;3.41;80.87;99011.70;1666491;85;21294;-72
2022/11/17 02:56:56;;;;;;;3.30;2.90;;;;;;;3.36;80.80;99009.05;1664809;85;21682;-73
2022/11/17 02:59:34;;;;;;;3.30;2.62;;;;;;;3.36;80.94;99011.66;1664932;84;21452;-72
2022/11/17 03:02:28;;;;;;;3.55;2.77;;;;;;;3.40;81.01;99018.34;1645193;85;21057;-72
2022/11/17 03:05:18;;;;;;;;;;;;;;;3.37;80.96;99008.93;1661755;86;21957;-72
2022/11/17 03:08:25;;;;;;;2.95;2.65;;;;;;;3.33;80.94;99003.59;1645701;84;21108;-74
2022/11/17 03:11:02;;;;;;;3.55;2.85;;;;;;;3.28;80.97;99004.40;1650070;84;21025;-74
2022/11/17 03:13:50;;;;;;;2.92;2.62;;;;;;;3.28;81.06;99001.79;1660379;84;21019;-73
2022/11/17 03:16:46;;;;;;;3.47;2.95;;;;;;;3.28;81.06;99000.48;1683665;84;21098;-73
2022/11/17 03:19:21;;;;;;;3.10;2.80;;;;;;;3.24;80.95;99004.23;1667832;84;21950;-73
2022/11/17 03:22:05;;;;;;;3.45;2.67;;;;;;;3.28;81.10;99008.75;1663612;85;21036;-72
2022/11/17 03:24:44;;;;;;;3.35;2.83;;;;;;;3.31;81.02;99002.87;1659228;84;20985;-72
2022/11/17 03:27:21;;;;;;;3.70;2.70;;;;;;;3.23;80.80;99006.48;1681903;84;20994;-72
2022/11/17 03:29:51;;;;;;;3.60;2.65;;;;;;;3.19;80.71;98999.83;1694977;84;21657;-72
2022/11/17 03:32:17;;;;;;;3.55;3.12;;;;;;;3.16;80.66;99001.33;1689329;84;21912;-71
2022/11/17 03:34:49;;;;;;;3.33;3.00;;;;;;;3.12;80.53;99010.33;1627153;86;21071;-71
2022/11/17 03:37:16;;;;;;;3.08;2.50;;;;;;;3.09;80.57;99007.48;1665478;85;21464;-71
2022/11/17 03:39:47;;;;;;;3.50;3.20;;;;;;;3.08;80.52;99007.56;1657671;86;21000;-71
2022/11/17 03:42:18;;;;;;;2.98;2.67;;;;;;;3.04;80.44;99008.73;1656045;86;21029;-71
2022/11/17 03:44:52;;;;;;;3.58;2.92;;;;;;;3.04;80.55;99010.86;1671145;84;21825;-73
2022/11/17 03:47:19;;;;;;;3.42;2.92;;;;;;;3.04;80.54;99017.39;1657080;85;21009;-73
2022/11/17 03:50:12;;;;;;;3.00;2.70;;;;;;;3.05;80.53;99016.91;1664111;84;21073;-73
2022/11/17 03:52:39;;;;;;;;;;;;;;;3.02;80.44;99022.36;1654523;85;21531;-73
2022/11/17 03:55:06;;;;;;;2.37;2.17;;;;;;;2.98;80.35;99028.70;1648562;86;20164;-72
2022/11/17 03:57:48;;;;;;;3.20;2.58;;;;;;;2.94;80.30;99026.80;1665783;84;22494;-72
2022/11/17 04:00:15;;;;;;;3.00;2.70;;;;;;;2.90;80.26;99031.88;1665959;84;21092;-72
2022/11/17 04:02:47;;;;;;;2.50;2.30;;;;;;;2.93;80.33;99030.81;1687321;84;21482;-72
2022/11/17 04:05:15;;;;;;;2.30;2.10;;;;;;;2.90;80.30;99029.27;1665513;86;21017;-72
2022/11/17 04:07:45;;;;;;;2.52;2.20;;;;;;;2.89;80.23;99031.48;1667886;84;21040;-73
2022/11/17 04:10:16;;;;;;;3.50;2.52;;;;;;;2.83;80.11;99032.76;1665834;86;21921;-71
2022/11/17 04:18:19;;;;;;;3.02;2.50;;;;;;;2.72;79.98;99030.06;1687213;83;21083;-72
2022/11/17 04:20:52;;;;;;;2.60;2.37;;;;;;;2.74;80.09;99033.39;1673404;84;21029;-72
2022/11/17 04:23:18;;;;;;;3.30;2.72;;;;;;;2.77;80.11;99036.25;1659953;85;22112;-72
2022/11/17 04:28:38;;;;;;;3.08;2.60;;;;;;;2.77;80.06;99035.77;1657845;84;20925;-71
2022/11/17 04:31:26;;;;;;;3.00;2.70;;;;;;;2.71;79.90;99033.61;1658658;86;21005;-71
2022/11/17 04:33:58;;;;;;;2.80;2.50;;;;;;;2.66;79.93;99034.84;1659934;85;21072;-71
2022/11/17 04:36:27;;;;;;;4.22;3.00;;;;;;;2.66;79.93;99029.63;1662620;84;22988;-71
2022/11/17 04:38:57;;;;;;;2.87;2.50;;;;;;;2.66;79.93;99025.72;1643488;85;22297;-71
2022/11/17 04:44:12;;;;;;;3.80;3.15;;;;;;;2.61;79.78;99020.00;1668291;84;21064;-72
2022/11/17 04:46:40;;;;;;;2.90;2.50;;;;;;;2.56;79.70;99022.91;1666777;86;21053;-72
2022/11/17 04:49:07;;;;;;;3.12;2.83;;;;;;;2.51;79.72;99023.67;1659372;84;21778;-72
2022/11/17 04:51:35;;;;;;;3.15;2.70;;;;;;;2.53;79.81;99018.75;1667479;84;21522;-72
2022/11/17 04:54:02;;;;;;;3.15;2.85;;;;;;;2.54;79.79;99019.11;1664419;85;21052;-72
2022/11/17 04:56:29;;;;;;;3.27;2.98;;;;;;;2.48;79.69;99013.00;1649619;85;21030;-71
2022/11/17 04:58:56;;;;;;;3.15;2.85;;;;;;;2.44;79.61;99012.02;1643927;85;21079;-71
2022/11/17 05:01:23;;;;;;;3.33;3.02;;;;;;;2.39;79.62;99013.62;1647170;86;21927;-71
2022/11/17 05:03:57;;;;;;;3.55;3.12;;;;;;;2.40;79.70;99015.76;1633790;86;21012;-72
2022/11/17 05:06:32;;;;;;;4.20;3.77;;;;;;;2.41;79.73;99018.25;1630207;86;21077;-72
2022/11/17 05:09:02;;;;;;;3.87;3.45;;;;;;;2.41;79.66;99022.62;1644611;86;21075;-72
2022/11/17 05:14:18;;;;;;;4.15;3.75;;;;;;;2.33;79.63;99023.64;1640127;85;21879;-72
2022/11/17 05:19:37;;;;;;;4.05;3.65;;;;;;;2.30;79.60;99032.00;1652909;85;21016;-72
2022/11/17 05:23:52;;;;;;;4.15;3.75;;;;;;;2.24;79.57;99027.22;1623653;88;21094;-72
2022/11/17 05:24:34;;;;;;;4.60;4.17;;;;;;;2.25;79.58;99034.56;1599570;88;21503;-71
2022/11/17 05:27:01;;;;;;;7.00;6.28;;;;;;;2.22;79.54;99033.45;1635142;86;21852;-71
2022/11/17 05:29:28;;;;;;;6.62;5.58;;;;;;;2.20;79.52;99032.25;1638732;86;21009;-71
2022/11/17 05:31:54;;;;;;;6.60;5.60;;;;;;;2.18;79.49;99033.30;1641028;85;21033;-71
2022/11/17 05:34:21;;;;;;;6.40;5.22;;;;;;;2.17;79.48;99036.38;1652252;86;21024;-71
2022/11/17 05:36:47;;;;;;;5.90;5.30;;;;;;;2.14;79.49;99039.19;1645275;86;21021;-72
2022/11/17 05:39:14;;;;;;;6.50;5.78;;;;;;;2.14;79.42;99033.15;1644083;86;21900;-72
2022/11/17 05:41:41;;;;;;;5.97;5.37;;;;;;;2.12;79.46;99030.63;1636866;87;22132;-72
2022/11/17 05:44:07;;;;;;;6.22;5.42;;;;;;;2.14;79.48;99031.84;1645098;86;21524;-72
2022/11/17 05:46:34;;;;;;;5.25;4.75;;;;;;;2.12;79.41;99035.83;1636554;87;21549;-72
2022/11/17 05:49:01;;;;;;;5.12;4.58;;;;;;;2.08;79.34;99040.05;1628571;86;21138;-72
2022/11/17 05:51:28;;;;;;;4.87;4.37;;;;;;;2.05;79.33;99040.27;1642249;86;21791;-72
2022/11/17 05:53:55;;;;;;;4.95;4.47;;;;;;;2.03;79.34;99049.48;1644865;85;21076;-72
2022/11/17 05:56:51;;;;;;;5.37;4.87;;;;;;;2.02;79.29;99051.70;1669346;84;21040;-72
2022/11/17 05:59:44;;;;;;;5.25;4.75;;;;;;;1.96;79.21;99045.61;1647681;84;21466;-72
2022/11/17 06:02:24;;;;;;;6.03;5.42;;;;;;;1.95;79.29;99053.89;1649650;85;22189;-73
2022/11/17 06:04:51;;;;;;;5.90;5.08;;;;;;;1.94;79.33;99055.30;1668978;84;21846;-72
2022/11/17 06:07:18;;;;;;;6.33;5.72;;;;;;;1.90;79.23;99057.24;1696523;84;20930;-72
2022/11/17 06:09:44;;;;;;;5.45;4.95;;;;;;;1.86;79.27;99055.78;1682025;84;21087;-73
2022/11/17 06:12:11;;;;;;;5.87;5.28;;;;;;;1.90;79.38;99055.94;1669007;84;21028;-73
2022/11/17 06:14:39;;;;;;;6.00;5.40;;;;;;;1.88;79.26;99053.08;1669108;85;21079;-73
2022/11/17 06:17:22;;;;;;;6.10;5.50;;;;;;;1.87;79.29;99057.45;1678431;83;21844;-73
2022/11/17 06:20:20;;;;;;;7.08;5.33;;;;;;;1.87;79.33;99053.55;1665650;83;20973;-72
2022/11/17 06:22:46;;;;;;;6.60;5.87;;;;;;;1.85;79.27;99052.81;1679012;85;21059;-74
2022/11/17 06:25:13;;;;;;;5.53;4.92;;;;;;;1.79;79.15;99064.08;1679912;83;21051;-74
2022/11/17 06:27:40;;;;;;;6.80;6.10;;;;;;;1.81;79.28;99060.91;1677897;84;21079;-74
2022/11/17 06:30:07;;;;;;;5.97;5.37;;;;;;;1.83;79.30;99055.13;1676404;83;21948;-73
2022/11/17 06:32:35;;;;;;;6.37;5.78;;;;;;;1.82;79.27;99049.55;1674797;83;21604;-75
2022/11/17 06:35:06;;;;;;;6.60;6.00;;;;;;;1.77;79.15;99049.87;1672875;84;21017;-71
2022/11/17 06:37:33;;;;;;;6.72;6.03;;;;;;;1.71;79.13;99052.38;1665546;84;21090;-73
2022/11/17 06:40:00;;;;;;;6.55;5.85;;;;;;;1.67;79.10;99049.63;1669202;85;21526;-75
2022/11/17 06:45:11;;;;;;;8.65;7.28;;;;;;;1.65;79.23;99036.34;1665417;84;21055;-73
2022/11/17 06:47:38;;;;;;;7.90;7.10;;;;;;;1.70;79.26;99046.81;1671137;84;21096;-76
2022/11/17 06:50:06;;;;;;;7.00;6.30;;;;;;;1.67;79.20;99044.88;1685187;84;21001;-73
2022/11/17 06:52:32;;;;;;;7.28;6.58;;;;;;;1.68;79.27;99046.55;1679345;84;21029;-72
2022/11/17 06:55:00;;;;;;;7.42;6.70;;;;;;;1.70;79.28;99049.88;1670857;83;21936;-73
2022/11/17 06:57:29;;;;;;;7.40;6.70;;;;;;;1.68;79.15;99042.18;1662425;84;21039;-72
2022/11/17 06:59:56;;;;;;;7.58;6.80;;;;;;;1.65;79.15;99043.69;1661419;84;21547;-72
2022/11/17 07:02:23;;;;;;;8.43;7.40;;;;;;;1.67;79.26;99039.68;1665677;84;22035;-74
2022/11/17 07:04:50;;;;;;;7.83;7.03;;;;;;;1.72;79.36;99031.92;1667281;84;21073;-74
2022/11/17 07:07:16;;;;;;;8.23;7.42;;;;;;;1.75;79.27;99032.69;1676570;84;21786;-72
2022/11/17 07:09:42;;;;;;;8.83;7.53;;;;;;;1.78;79.32;99035.08;1681420;84;21057;-72
2022/11/17 07:12:09;;;;;;;8.55;7.50;;;;;;;1.83;79.38;99038.20;1669232;84;21141;-72
2022/11/17 07:14:38;;;;;;;10.00;7.40;;;;;;;1.86;79.36;99035.42;1664823;84;20997;-73
2022/11/17 07:17:06;;;;;;;12.28;8.28;;;;;;;1.78;78.97;99031.17;1661460;84;21123;-72
2022/11/17 07:19:33;;;;;;;8.75;7.85;;;;;;;1.69;78.96;99026.09;1678059;84;22245;-72
2022/11/17 07:21:59;;;;;;;8.80;7.90;;;;;;;1.64;78.85;99025.10;1667295;84;21015;-71
2022/11/17 07:24:26;;;;;;;9.35;8.20;;;;;;;1.55;78.73;99039.17;1671921;84;21295;-73
2022/11/17 07:26:53;;;;;;;10.78;9.30;;;;;;;1.54;78.87;99047.87;1676118;84;21043;-74
2022/11/17 07:29:21;;;;;;;10.03;8.40;;;;;;;1.56;78.99;99044.73;1670091;84;21049;-76
2022/11/17 07:31:49;;;;;;;9.55;8.48;;;;;;;1.61;79.10;99039.59;1664272;85;21873;-78
2022/11/17 07:34:16;;;;;;;9.40;8.15;;;;;;;1.64;79.06;99038.12;1669499;85;20966;-77
2022/11/17 07:36:43;;;;;;;10.40;8.60;;;;;;;1.63;79.03;99040.32;1664577;84;21010;-77
2022/11/17 07:39:11;;;;;;;10.63;9.55;;;;;;;1.64;79.08;99036.81;1651744;84;21013;-76
2022/11/17 07:41:38;;;;;;;11.25;10.05;;;;;;;1.66;79.06;99040.61;1666553;84;21013;-76
2022/11/17 07:44:05;;;;;;;10.75;9.40;;;;;;;1.61;78.83;99043.50;1665240;84;21835;-72
2022/11/17 07:46:31;;;;;;;10.05;8.90;;;;;;;1.55;78.74;99045.20;1664159;84;21062;-76
2022/11/17 07:48:59;;;;;;;11.05;9.78;;;;;;;1.53;78.80;99045.75;1666940;84;21061;-77
2022/11/17 07:51:26;;;;;;;12.03;10.58;;;;;;;1.54;78.86;99044.81;1669202;84;21001;-75
2022/11/17 07:53:52;;;;;;;11.65;9.65;;;;;;;1.54;78.78;99039.61;1666233;83;21021;-74
2022/11/17 07:56:19;;;;;;;11.97;10.30;;;;;;;1.59;78.88;99037.56;1659596;86;22612;-75
2022/11/17 07:58:47;;;;;;;12.23;10.48;;;;;;;1.60;78.69;99043.59;1655052;86;20974;-75
2022/11/17 08:01:18;;;;;;;11.95;10.48;;;;;;;1.55;78.62;99037.41;1643575;86;21491;-77
2022/11/17 08:03:43;;;;;;;13.32;11.22;;;;;;;1.56;78.68;99041.67;1634434;86;21065;-77
2022/11/17 08:06:10;;;;;;;13.72;11.63;;;;;;;1.63;78.78;99039.48;1642428;86;21072;-75
2022/11/17 08:08:37;;;;;;;11.70;10.13;;;;;;;1.71;78.84;99048.48;1639123;86;21795;-76
2022/11/17 08:11:05;;;;;;;11.38;10.00;;;;;;;1.78;78.89;99044.19;1626688;88;21016;-73
2022/11/17 08:13:32;;;;;;;11.95;10.03;;;;;;;1.82;78.88;99053.46;1651382;86;21031;-75
2022/11/17 08:16:00;;;;;;;11.45;9.80;;;;;;;1.83;78.75;99056.42;1630250;86;21076;-74
2022/11/17 08:18:31;;;;;;;11.18;9.75;;;;;;;1.83;78.72;99057.73;1641772;86;21546;-75
2022/11/17 08:21:12;;;;;;;13.65;11.63;;;;;;;1.75;78.31;99076.47;1645586;86;22406;-75
2022/11/17 08:23:40;;;;;;;14.38;12.05;;;;;;;1.72;78.34;99080.55;1631858;85;21066;-75
2022/11/17 08:26:09;;;;;;;12.70;9.70;;;;;;;1.76;78.38;99072.09;1646190;85;21070;-74
2022/11/17 08:28:37;;;;;;;12.43;10.43;;;;;;;1.78;78.34;99065.02;1642872;86;21028;-78
2022/11/17 08:31:06;;;;;;;11.40;9.95;;;;;;;1.76;78.27;99070.80;1641441;85;20988;-74
2022/11/17 08:33:33;;;;;;;11.73;10.13;;;;;;;1.73;78.25;99071.80;1644047;86;22630;-73
2022/11/17 08:36:01;;;;;;;12.80;10.72;;;;;;;1.73;78.27;99078.31;1623293;88;21044;-74
2022/11/17 08:38:29;;;;;;;11.95;10.05;;;;;;;1.78;78.32;99084.07;1625698;87;21539;-78
2022/11/17 08:41:00;;;;;;;11.97;10.30;;;;;;;1.77;78.06;99075.06;1634761;86;21060;-79
2022/11/17 08:43:27;;;;;;;12.58;10.53;;;;;;;1.76;77.96;99074.70;1640947;86;21084;-76
2022/11/17 08:45:54;;;;;;;11.55;10.32;;;;;;;1.72;77.88;99074.88;1639078;86;21925;-77
2022/11/17 08:48:20;;;;;;;12.03;10.40;;;;;;;1.74;77.94;99056.58;1627145;87;21064;-76
2022/11/17 08:50:47;;;;;;;15.03;12.00;;;;;;;1.77;77.88;99051.64;1641565;86;20997;-76
2022/11/17 08:53:17;;;;;;;14.58;13.08;;;;;;;1.77;77.88;99045.12;1650583;86;21116;-75
2022/11/17 08:55:44;;;;;;;19.92;14.63;;;;;;;1.82;77.92;99040.44;1653564;86;21057;-77
2022/11/17 08:58:11;;;;;;;17.05;12.70;;;;;;;1.86;77.95;99038.86;1665049;84;22560;-78
2022/11/17 09:00:39;;;;;;;13.50;10.70;;;;;;;1.89;77.92;99045.63;1674508;84;21033;-77
2022/11/17 09:03:08;;;;;;;12.63;10.40;;;;;;;1.85;77.74;99036.36;1668424;83;21111;-79
2022/11/17 09:05:39;;;;;;;12.28;10.43;;;;;;;1.85;77.72;99031.98;1664836;84;21055;-77
2022/11/17 09:08:06;;;;;;;12.85;10.43;;;;;;;1.81;77.55;99028.36;1659411;84;21063;-77
2022/11/17 09:10:32;;;;;;;12.35;10.72;;;;;;;1.81;77.52;99023.98;1656875;85;21784;-76
2022/11/17 09:12:59;;;;;;;14.73;12.23;;;;;;;1.78;77.32;99028.58;1662679;84;21037;-79
2022/11/17 09:15:26;;;;;;;11.78;10.58;;;;;;;1.75;77.27;99039.19;1661371;86;21044;-78
2022/11/17 09:17:54;;;;;;;12.55;11.25;;;;;;;1.70;77.09;99032.97;1661151;85;21071;-78
2022/11/17 09:20:21;;;;;;;13.22;11.85;;;;;;;1.66;77.03;99032.34;1664759;84;21057;-81
2022/11/17 09:22:48;;;;;;;13.25;11.38;;;;;;;1.64;77.07;99030.75;1673538;84;21889;-82
2022/11/17 09:25:15;;;;;;;12.73;11.30;;;;;;;1.68;77.12;99028.33;1686900;84;21028;-80
2022/11/17 09:27:42;;;;;;;13.32;11.88;;;;;;;1.70;77.10;99028.59;1667675;85;22164;-81
2022/11/17 09:30:10;;;;;;;12.68;11.03;;;;;;;1.70;76.96;99025.98;1665056;84;21131;-78
2022/11/17 09:32:38;;;;;;;13.35;10.82;;;;;;;1.69;76.92;99020.42;1649669;85;21061;-79
2022/11/17 09:35:08;;;;;;;12.70;11.40;;;;;;;1.71;76.99;99019.84;1667056;85;21906;-78
2022/11/17 09:37:33;;;;;;;13.35;11.83;;;;;;;1.75;77.00;99018.37;1665290;86;21057;-79
2022/11/17 09:39:59;;;;;;;13.13;11.35;;;;;;;1.79;76.99;99026.34;1679836;84;21032;-79
2022/11/17 09:42:26;;;;;;;13.15;11.15;;;;;;;1.83;76.94;99025.19;1683802;84;21067;-79
2022/11/17 09:45:24;;;;;;;16.02;11.85;;;;;;;1.82;76.90;99031.33;1667394;85;21064;-80
2022/11/17 09:48:01;;;;;;;14.13;11.25;;;;;;;1.81;76.81;99016.65;1670844;85;21855;-82
2022/11/17 09:50:39;;;;;;;13.45;11.25;;;;;;;1.78;76.73;99018.16;1668413;85;21018;-82
2022/11/17 09:53:30;;;;;;;12.23;10.08;;;;;;;1.79;76.82;99017.22;1637769;85;21072;-79
2022/11/17 09:56:03;;;;;;;15.00;11.75;;;;;;;1.83;76.76;99026.48;1634575;87;21049;-79
2022/11/17 09:58:50;;;;;;;12.18;10.32;;;;;;;1.77;76.60;99025.14;1669082;84;21064;-79
2022/11/17 10:01:18;;;;;;;15.05;12.07;;;;;;;1.78;76.47;99020.30;1647842;86;21845;-76
2022/11/17 10:03:46;;;;;;;14.60;12.13;;;;;;;1.76;76.49;99027.38;1665697;84;21069;-78
2022/11/17 10:06:18;;;;;;;14.83;10.55;;;;;;;1.76;76.49;99024.77;1667467;85;21105;-76
2022/11/17 10:09:28;;;;;;;15.80;13.93;;;;;;;1.76;76.47;99022.64;1667526;86;21077;-77
2022/11/17 10:12:00;;;;;;;12.88;11.48;;;;;;;1.76;76.44;99023.47;1677888;84;21063;-77
2022/11/17 10:14:27;;;;;;;13.83;10.85;;;;;;;1.82;76.54;99016.55;1666388;83;21981;-79
2022/11/17 10:16:57;;;;;;;11.70;9.75;;;;;;;1.83;76.54;99018.20;1665187;85;21053;-78
2022/11/17 10:19:27;;;;;;;12.20;10.75;;;;;;;1.83;76.35;99015.61;1665721;86;21129;-75
2022/11/17 10:22:05;;;;;;;11.83;10.00;;;;;;;1.78;76.27;99018.99;1678558;84;21538;-79
2022/11/17 10:24:37;;;;;;;15.13;11.08;;;;;;;1.81;76.28;99014.05;1680054;84;21115;-80
2022/11/17 10:27:16;;;;;;;12.07;10.45;;;;;;;1.83;76.24;99014.77;1641372;86;21992;-76
2022/11/17 10:30:15;;;;;;;13.00;10.40;;;;;;;1.88;76.32;99016.63;1648815;84;21027;-76
2022/11/17 10:32:53;;;;;;;13.03;11.20;;;;;;;1.90;76.31;99018.19;1679414;84;21107;-79
2022/11/17 10:35:24;;;;;;;14.30;11.40;;;;;;;1.91;76.25;99017.25;1647102;85;21500;-76
2022/11/17 10:38:07;;;;;;;13.03;11.28;;;;;;;1.92;76.30;99019.38;1669712;84;21068;-76
2022/11/17 10:40:47;;;;;;;14.95;12.05;;;;;;;1.90;76.04;99014.28;1663220;86;21839;-79
2022/11/17 10:43:28;;;;;;;14.83;11.22;;;;;;;1.85;75.96;99011.16;1647961;86;21033;-80
2022/11/17 10:46:06;;;;;;;14.25;11.70;;;;;;;1.82;75.85;99011.34;1663824;85;21076;-78
2022/11/17 10:48:37;;;;;;;14.47;12.55;;;;;;;1.78;75.87;99016.39;1686970;84;21036;-75
2022/11/17 10:51:20;;;;;;;13.48;11.78;;;;;;;1.80;75.95;99017.12;1668970;85;21507;-79
2022/11/17 10:54:07;;;;;;;12.90;10.80;;;;;;;1.85;76.03;99022.05;1663325;84;21926;-80
2022/11/17 10:56:42;;;;;;;12.45;10.10;;;;;;;1.90;76.06;99024.70;1667927;85;21531;-76
2022/11/17 10:59:23;;;;;;;12.58;10.10;;;;;;;1.91;75.96;99024.23;1670763;84;21072;-76
2022/11/17 11:01:50;;;;;;;13.48;11.38;;;;;;;1.91;75.86;99020.32;1657783;84;21115;-76
2022/11/17 11:04:40;;;;;;;11.38;10.05;;;;;;;1.89;75.72;99024.80;1657748;84;21090;-80
2022/11/17 11:07:21;;;;;;;11.45;9.48;;;;;;;1.86;75.71;99027.14;1664597;84;21789;-80
2022/11/17 11:10:21;;;;;;;12.63;10.00;;;;;;;1.81;75.55;99019.25;1639613;85;21052;-77
2022/11/17 11:13:13;;;;;;;13.78;11.57;;;;;;;1.72;75.30;99025.88;1648291;83;21136;-74
2022/11/17 11:15:40;;;;;;;424.85;66.28;;;;;;;1.67;75.27;99024.89;1672818;84;21134;-77
2022/11/17 11:18:15;;;;;;;154.38;28.12;;;;;;;1.66;75.34;99019.33;1678846;84;21064;-75
2022/11/17 11:20:52;;;;;;;22.20;12.00;;;;;;;1.70;75.48;99016.05;1673504;83;22684;-78
2022/11/17 11:24:02;;;;;;;15.03;9.83;;;;;;;1.77;75.60;99013.42;1665147;83;21013;-78
2022/11/17 11:26:56;;;;;;;12.53;9.58;;;;;;;1.79;75.53;99012.84;1670550;83;21570;-77
2022/11/17 11:29:40;;;;;;;;;;;;;;;1.75;75.31;99009.26;1655079;85;22302;-79
2022/11/17 11:32:32;;;;;;;13.65;9.83;;;;;;;1.70;75.33;99006.47;1661389;84;20176;-77
2022/11/17 11:35:27;;;;;;;13.03;11.00;;;;;;;1.72;75.46;99006.36;1658908;86;22209;-78
2022/11/17 11:38:05;;;;;;;13.75;10.50;;;;;;;1.68;75.28;99004.91;1687757;84;21617;-78
2022/11/17 11:40:36;;;;;;;57.23;14.25;;;;;;;1.63;75.27;99002.59;1678043;84;21052;-78
2022/11/17 11:43:20;;;;;;;27.22;12.20;;;;;;;1.63;75.31;98999.15;1664012;85;21036;-79
2022/11/17 11:46:10;;;;;;;14.07;12.33;;;;;;;1.60;75.26;99000.19;1668549;85;21061;-75
2022/11/17 11:48:37;;;;;;;12.82;11.00;;;;;;;1.62;75.33;99000.92;1659687;84;21890;-79
2022/11/17 11:51:20;;;;;;;12.58;11.28;;;;;;;1.62;75.32;98990.98;1664840;85;20958;-80
2022/11/17 11:53:55;;;;;;;15.23;11.12;;;;;;;1.66;75.35;98993.30;1676915;83;21072;-79
2022/11/17 11:56:32;;;;;;;12.80;10.18;;;;;;;1.71;75.41;98994.29;1667554;84;21041;-71
2022/11/17 11:59:15;;;;;;;11.22;10.00;;;;;;;1.75;75.45;98985.36;1670361;84;21068;-80
2022/11/17 12:01:53;;;;;;;15.98;10.70;;;;;;;1.77;75.40;98981.35;1649243;85;21762;-78
2022/11/17 12:04:49;;;;;;;15.78;12.70;;;;;;;1.77;75.30;98976.14;1658879;85;20941;-80
2022/11/17 12:07:43;;;;;;;17.15;13.38;;;;;;;1.77;75.21;98978.28;1658426;82;21122;-77
2022/11/17 12:10:21;;;;;;;15.50;12.55;;;;;;;1.78;75.14;98977.34;1615701;84;21094;-76
2022/11/17 12:12:49;;;;;;;15.55;11.75;;;;;;;1.79;75.20;98971.67;1669580;85;21436;-75
2022/11/17 12:15:24;;;;;;;14.83;12.28;;;;;;;1.84;75.29;98978.72;1665545;84;22152;-78
2022/11/17 12:17:58;;;;;;;12.07;9.65;;;;;;;1.85;75.24;98970.80;1669092;85;21071;-72
2022/11/17 12:20:40;;;;;;;;;;;;;;;1.85;75.20;98969.50;1660955;85;21040;-77
2022/11/17 12:23:35;;;;;;;14.13;11.40;;;;;;;1.82;75.11;98980.09;1654177;85;20574;-75
2022/11/17 12:26:02;;;;;;;13.88;11.22;;;;;;;1.79;74.83;98973.80;1670521;85;21085;-78
2022/11/17 12:28:37;;;;;;;14.18;12.25;;;;;;;1.70;74.85;98970.03;1641966;84;21875;-74
2022/11/17 12:31:31;;;;;;;15.05;13.45;;;;;;;1.70;74.90;98974.40;1676000;84;21039;-80
2022/11/17 12:34:09;;;;;;;19.73;13.40;;;;;;;1.72;74.98;98970.75;1665761;85;25560;-78
2022/11/17 12:36:36;;;;;;;15.88;12.50;;;;;;;1.77;75.03;98969.64;1664487;83;21246;-78